Nearby METAR Reports

 

KSJC - San Jose, California, USA
Distance from station: NE 9mi, 14km
Updated: Fri, 30-Jan-2015 10:16am PST
Mist, Overcast
Mist, Overcast
 Wind from calm
Wind: Calm
Temperature: 52°F , 11°C
Dew Point: 48°F , 9°C
Humidity: 88%
Barometer: 30.03 inHg , 1016.9 hPa
Summary: Mist
Clouds: Overcast
Visibility: 3 miles , 5 km
Cloud details: Few Clouds 300 ft
Mostly cloudy 600 ft
Overcast 800 ft
2015/01/30 18:16 KSJC 301816Z 00000KT 3SM BR FEW003 BKN006 OVC008 11/09 A3003 RMK AO2 VIS SE 2 1/2
KNUQ - Moffett Nas/Mtn, California, USA
Distance from station: N 9mi, 14km
Updated: Fri, 30-Jan-2015 9:56am PST
Mist, Overcast
Mist, Overcast
 Wind from calm
Wind: Calm
Temperature: 54°F , 12°C
Dew Point: 50°F , 10°C
Humidity: 88%
Barometer: 30.05 inHg , 1017.6 hPa
Summary: Mist
Clouds: Overcast
Visibility: 6 miles , 10 km
Cloud details: Overcast 700 ft
2015/01/30 17:56 KNUQ 301756Z 00000KT 6SM BR OVC007 12/10 A3005 RMK AO2 SLP176 T01170100 10117 20089 51002
 
KPAO - Palo Alto, California, USA
Distance from station: NNW 14mi, 23km
Updated: Fri, 30-Jan-2015 9:47am PST
Mist, Overcast
Mist, Overcast
 Wind from calm
Wind: Calm
Temperature: 52°F , 11°C
Dew Point: 52°F , 11°C
Humidity: 100%
Barometer: 30.04 inHg , 1017.3 hPa
Summary: Mist
Clouds: Overcast
Visibility: 3 miles , 5 km
Cloud details: Overcast 400 ft
2015/01/30 17:47 KPAO 301747Z 00000KT 3SM BR OVC004 11/11 A3004
KRHV - San Jose/Reid, California, USA
Distance from station: ENE 12mi, 19km
Updated: Fri, 30-Jan-2015 9:53am PST
Mist, Overcast
Mist, Overcast
 Wind from calm
Wind: Calm
Temperature: 52°F , 11°C
Dew Point: 50°F , 10°C
Humidity: 94%
Summary: Mist
Clouds: Overcast
Visibility: 1 1/2 miles , 2 km
Cloud details: Overcast 400 ft
2015/01/30 17:53 KRHV 301753Z 00000KT 1 1/2SM BR OVC004 11/10 3006
 
KOAK - Oakland, California, USA
Distance from station: NNW 31mi, 50km
Updated: Fri, 30-Jan-2015 9:53am PST
Mist, Overcast
Mist, Overcast
 Wind from varies
Wind: varies 3 mph , 6 km/h
Temperature: 54°F , 12°C
Dew Point: 50°F , 10°C
Humidity: 88%
Barometer: 30.04 inHg , 1017.3 hPa
Summary: Mist
Clouds: Overcast
Visibility: 5 miles , 8 km
Cloud details: Overcast 700 ft
2015/01/30 17:53 KOAK 301753Z VRB03KT 5SM BR OVC007 12/10 A3004 RMK AO2 SLP172 T01220100 10122 20083 52004
KSQL - San Carlos Airpo, California, USA
Distance from station: NW 21mi, 34km
Updated: Fri, 30-Jan-2015 10:11am PST
Mist, Overcast
Mist, Overcast
 Wind from calm
Wind: Calm
Temperature: 50°F , 10°C
Dew Point: 50°F , 10°C
Humidity: 100%
Barometer: 30.05 inHg , 1017.6 hPa
Summary: Mist
Clouds: Overcast
Visibility: 2 miles , 3 km
Cloud details: Overcast 300 ft
2015/01/30 18:11 KSQL 301811Z 00000KT 2SM BR OVC003 10/10 A3005
 
KSFO - San Francisco, California, USA
Distance from station: NW 30mi, 49km
Updated: Fri, 30-Jan-2015 9:56am PST
Partly cloudy
Partly cloudy
 Wind from calm
Wind: Calm
Temperature: 55°F , 13°C
Dew Point: 52°F , 11°C
Humidity: 88%
Barometer: 30.03 inHg , 1016.9 hPa
Clouds: Partly cloudy
Visibility: 8 miles , 13 km
Cloud details: Few Clouds 400 ft
Partly cloudy 600 ft
2015/01/30 17:56 KSFO 301756Z 00000KT 8SM FEW004 SCT006 13/11 A3003 RMK AO2 SLP169 T01280111 10128 20100 50002
KE16 - San Martin, California, USA
Distance from station: ESE 27mi, 43km
Updated: Fri, 30-Jan-2015 10:15am PST
Mist, Overcast
Mist, Overcast
 Wind from calm
Wind: Calm
Temperature: 48°F , 9°C
Dew Point: 48°F , 9°C
Humidity: 100%
Barometer: 30.05 inHg , 1017.6 hPa
Summary: Mist
Clouds: Overcast
Visibility: 1 mile , 2 km
Cloud details: Overcast 300 ft
2015/01/30 18:15 KE16 301815Z AUTO 00000KT 1SM BR OVC003 09/09 A3005 RMK AO2
 
KWVI - Watsonville, California, USA
Distance from station: SSE 27mi, 44km
Updated: Fri, 30-Jan-2015 9:53am PST
Clear
Clear
 Wind from ESE
Wind: ESE 5 mph , 7 km/h
Temperature: 54°F , 12°C
Dew Point: 48°F , 9°C
Humidity: 82%
Barometer: 30.03 inHg , 1016.9 hPa
Clouds: Clear
Visibility: 9 miles , 14 km
2015/01/30 17:53 KWVI 301753Z AUTO 12004KT 9SM CLR 12/09 A3003 RMK AO2 SLP168 T01220089 10122 20067 58001
KHAF - Half Moon Bay, California, USA
Distance from station: WNW 31mi, 50km
Updated: Fri, 30-Jan-2015 10:15am PST
Mist, Clear
Mist, Clear
 Wind from W
Wind: W 5 mph , 7 km/h
Temperature: 55°F , 13°C
Dew Point: 54°F , 12°C
Humidity: 94%
Barometer: 30.03 inHg , 1016.9 hPa
Summary: Mist
Clouds: Clear
Visibility: 5 miles , 8 km
2015/01/30 18:15 KHAF 301815Z AUTO 28004KT 5SM BR CLR 13/12 A3003 RMK AO2
 
KHWD - Hayward, California, USA
Distance from station: N 28mi, 44km
Updated: Fri, 30-Jan-2015 9:54am PST
Haze, Overcast
Haze, Overcast
 Wind from calm
Wind: Calm
Temperature: 55°F , 13°C
Dew Point: 50°F , 10°C
Humidity: 82%
Barometer: 30.03 inHg , 1016.9 hPa
Summary: Haze
Clouds: Overcast
Visibility: 6 miles , 10 km
Cloud details: Overcast 700 ft
2015/01/30 17:54 KHWD 301754Z AUTO 00000KT 6SM HZ OVC007 13/10 A3003 RMK AO2 SLP179 T01280100 10133 20083 51002
KLVK - Livermore, California, USA
Distance from station: NNE 31mi, 51km
Updated: Fri, 30-Jan-2015 9:53am PST
Clear
Clear
 Wind from calm
Wind: Calm
Temperature: 52°F , 11°C
Dew Point: 43°F , 6°C
Humidity: 72%
Barometer: 30.03 inHg , 1016.9 hPa
Clouds: Clear
Visibility: 10 miles , 16 km
2015/01/30 17:53 KLVK 301753Z 00000KT 10SM CLR 11/06 A3003 RMK AO2 SLP168 T01110061 10111 20039 50001